Bookmark and Share
Track history (hours):
 

Hertfordshire

Last reported at 2014-Apr-16 04:33 UTC. Time now 2014-Apr-16 05:23 UTC.
Position N 56°06' W 002°50'.

Length 83 m; draft 4.7 m.

Type: Cargo ship. MMSI: 236563000.

NotesDate/timePositionNaut miles runAvg speedWind from/ knotsBaromVisibWave heightAir tempDewpointWater temp
2014-Apr-16 04:33N 56°06' W 002°50'9 9.2
2014-Apr-16 03:33N 56°04' W 002°34'10 9.6
2014-Apr-16 02:33N 55°60' W 002°19'10 9.4
2014-Apr-16 01:33N 55°56' W 002°04'5410.2
2014-Apr-15 20:13N 55°09' W 001°14'710.6
2014-Apr-15 19:33N 55°03' W 001°08'1110.4
2014-Apr-15 18:32N 54°54' W 000°59'10 9.8
2014-Apr-15 17:33N 54°46' W 000°50'9 9.1
2014-Apr-15 16:33N 54°39' W 000°41'9 8.6
2014-Apr-15 15:33N 54°32' W 000°31'8 8.4
2014-Apr-15 14:33N 54°25' W 000°22'9 4.4
2014-Apr-15 12:34N 54°18' W 000°14'9 9.4
2014-Apr-15 11:34N 54°10' W 000°05'10 9.5
2014-Apr-15 10:34N 54°02' E 000°03'1110.5
2014-Apr-15 09:34N 53°53' E 000°12'1111.1
2014-Apr-15 08:33N 53°44' E 000°23'1111.2
2014-Apr-15 07:33N 53°34' E 000°32'43 8.6
2014-Apr-15 02:34N 52°60' E 001°16'1110.9
2014-Apr-15 01:34N 52°54' E 001°31'1212.0
2014-Apr-15 00:34N 52°47' E 001°48'1010.3
2014-Apr-14 23:34N 52°38' E 001°54'1111.2
2014-Apr-14 22:34N 52°26' E 001°52'18 8.8
2014-Apr-14 20:34N 52°09' E 001°50'7 7.4
2014-Apr-14 19:34N 52°02' E 001°49'7 7.0
2014-Apr-14 18:34N 51°55' E 001°48'6 5.8
2014-Apr-14 17:34N 51°49' E 001°44'9 8.7
2014-Apr-14 16:33N 51°48' E 001°30'1110.4
2014-Apr-14 15:32N 51°40' E 001°18'1111.7
2014-Apr-14 14:34N 51°33' E 001°04'1211.5
2014-Apr-14 13:34N 51°29' E 000°47'17 8.5
2014-Apr-14 11:34N 51°28' E 000°20'0 0.0
2014-Apr-14 10:34N 51°28' E 000°20'0 0.0
2014-Apr-14 09:34N 51°28' E 000°20'0 0.0
2014-Apr-14 08:34N 51°28' E 000°20'0 0.0
2014-Apr-14 07:34N 51°28' E 000°20'0 0.0
2014-Apr-14 06:34N 51°28' E 000°20'0 0.0
2014-Apr-14 05:34N 51°28' E 000°20'0 0.0
2014-Apr-13 22:34N 51°28' E 000°20'0 0.0
2014-Apr-13 21:34N 51°28' E 000°20'0 0.0
2014-Apr-13 20:34N 51°28' E 000°20'0 0.0
2014-Apr-13 19:34N 51°28' E 000°20'0 0.0
2014-Apr-13 18:34N 51°28' E 000°20'0 0.0
2014-Apr-13 17:34N 51°28' E 000°20'0 0.0
2014-Apr-13 16:34N 51°28' E 000°20'0 0.0
2014-Apr-13 15:34N 51°28' E 000°20'0 0.0
2014-Apr-13 14:34N 51°28' E 000°20'0 0.0
2014-Apr-13 13:34N 51°28' E 000°20'0 0.0
2014-Apr-13 12:34N 51°28' E 000°20'0 0.0
2014-Apr-13 11:34N 51°28' E 000°20'1 0.7
2014-Apr-13 10:34N 51°27' E 000°20'0 0.0
2014-Apr-13 09:34N 51°27' E 000°20'0 0.0
2014-Apr-13 08:34N 51°27' E 000°20'0 0.0
2014-Apr-13 07:34N 51°27' E 000°20'0 0.0
2014-Apr-13 06:34N 51°27' E 000°20'0 0.0
2014-Apr-13 05:33N 51°27' E 000°20'0 0.0
2014-Apr-13 04:34N 51°27' E 000°20'0 0.0
2014-Apr-13 03:34N 51°27' E 000°20'0 0.0
2014-Apr-13 02:34N 51°27' E 000°20'0 0.0
2014-Apr-13 01:34N 51°27' E 000°20'0 0.0
2014-Apr-13 00:34N 51°27' E 000°20'0 0.0
2014-Apr-12 23:34N 51°27' E 000°20'0 0.0
2014-Apr-12 22:34N 51°27' E 000°20'0 0.0
2014-Apr-12 21:34N 51°27' E 000°20'0 0.0
2014-Apr-12 20:34N 51°27' E 000°20'0 0.0
2014-Apr-12 19:34N 51°27' E 000°20'0 0.0
2014-Apr-12 18:34N 51°27' E 000°20'0 0.0
2014-Apr-12 17:34N 51°27' E 000°20'0 0.0
2014-Apr-12 16:34N 51°27' E 000°20'0 0.0
2014-Apr-12 15:34N 51°27' E 000°20'0 0.0
2014-Apr-12 14:34N 51°27' E 000°20'0 0.0
2014-Apr-12 13:34N 51°27' E 000°20'0 0.0
2014-Apr-12 12:34N 51°27' E 000°20'0 0.0
2014-Apr-12 11:34N 51°27' E 000°20'0 0.0
2014-Apr-12 10:34N 51°27' E 000°20'0 0.0
2014-Apr-12 09:34N 51°27' E 000°20'0 0.0
2014-Apr-12 08:34N 51°27' E 000°20'0 0.0
2014-Apr-12 07:33N 51°27' E 000°20'0 0.0
2014-Apr-12 06:34N 51°27' E 000°20'0 0.0
2014-Apr-12 05:34N 51°27' E 000°20'0 0.0
2014-Apr-12 04:34N 51°27' E 000°20'0 0.0
2014-Apr-12 03:34N 51°27' E 000°20'0 0.0
2014-Apr-12 02:34N 51°27' E 000°20'0 0.0
2014-Apr-12 01:34N 51°27' E 000°20'0 0.0
2014-Apr-12 00:34N 51°27' E 000°20'0 0.0
2014-Apr-11 23:34N 51°27' E 000°20'0 0.0
2014-Apr-11 22:34N 51°27' E 000°20'0 0.0
2014-Apr-11 21:34N 51°27' E 000°20'0 0.0
2014-Apr-11 20:34N 51°27' E 000°20'0 0.0
2014-Apr-11 19:33N 51°27' E 000°20'0 0.4
2014-Apr-11 18:34N 51°27' E 000°20'9 9.3
2014-Apr-11 17:33N 51°30' E 000°34'1010.2
2014-Apr-11 16:33N 51°30' E 000°51'5 4.9
2014-Apr-11 15:32N 51°30' E 000°59'0 0.0
2014-Apr-11 14:32N 51°30' E 000°59'0 0.0
2014-Apr-11 13:32N 51°30' E 000°59'0 0.0
2014-Apr-11 12:32N 51°30' E 000°59'0 0.0
2014-Apr-11 11:32N 51°30' E 000°59'5 5.4
2014-Apr-11 10:34N 51°30' E 001°07'1010.5
2014-Apr-11 09:33N 51°28' E 001°24'1110.8
2014-Apr-11 08:33N 51°20' E 001°35'1010.3
2014-Apr-11 07:34N 51°10' E 001°37'8 8.0
2014-Apr-11 06:33N 51°02' E 001°34'37 9.0
2014-Apr-11 02:27N 50°33' E 000°59'8 9.4
2014-Apr-11 01:33N 50°30' E 000°46'9 9.3
2014-Apr-11 00:33N 50°27' E 000°32'9 9.2
2014-Apr-10 23:33N 50°25' E 000°18'30 9.5
2014-Apr-10 20:24N 50°25' W 000°28'910.7
2014-Apr-10 19:33N 50°27' W 000°43'1111.3
2014-Apr-10 18:33N 50°29' W 000°60'1212.0
2014-Apr-10 17:33N 50°30' W 001°19'1212.2
2014-Apr-10 16:33N 50°30' W 001°38'202 6.4
2014-Apr-09 09:05N 52°19' W 006°10'6810.2
2014-Apr-09 02:22N 53°27' W 005°59'  

Dump ship's entire track history

sailing weather and tide predictions

Hertfordshire — ZDJS5 — position and weather